createdAt,value
2023-01-30T00:03:24.720Z,18.30
2023-01-30T00:08:27.165Z,18.67
2023-01-30T00:13:28.538Z,17.70
2023-01-30T00:18:30.070Z,18.10
2023-01-30T00:23:33.720Z,18.90
2023-01-30T00:28:35.406Z,19.40
2023-01-30T00:33:38.903Z,21.85
2023-01-30T00:38:40.727Z,19.83
2023-01-30T00:44:01.052Z,19.20
2023-01-30T00:49:02.644Z,18.35
2023-01-30T00:54:04.481Z,18.98
2023-01-30T00:59:05.784Z,16.85
2023-01-30T01:04:08.848Z,19.70
2023-01-30T01:09:10.746Z,20.80
2023-01-30T01:14:12.070Z,19.63
2023-01-30T01:19:13.712Z,18.55
2023-01-30T01:24:16.073Z,17.90
2023-01-30T01:29:17.662Z,17.10
2023-01-30T01:34:19.225Z,23.10
2023-01-30T01:39:20.801Z,19.38
2023-01-30T01:44:25.080Z,21.23
2023-01-30T01:49:30.674Z,20.23
2023-01-30T01:54:49.425Z,19.10
2023-01-30T02:00:05.025Z,19.25
2023-01-30T02:05:07.083Z,18.83
2023-01-30T02:10:13.767Z,19.05
2023-01-30T02:15:17.059Z,20.50
2023-01-30T02:20:37.375Z,18.23
2023-01-30T02:26:17.658Z,16.67
2023-01-30T02:31:29.708Z,19.63
2023-01-30T02:36:45.568Z,18.10
2023-01-30T02:42:04.976Z,17.35
2023-01-30T02:47:38.647Z,17.85
2023-01-30T02:52:40.870Z,18.48
2023-01-30T02:57:42.463Z,18.17
2023-01-30T03:03:07.356Z,18.90
2023-01-30T03:08:08.854Z,17.23
2023-01-30T03:13:19.608Z,17.88
2023-01-30T03:18:22.044Z,18.05
2023-01-30T03:23:23.370Z,18.30
2023-01-30T03:28:25.806Z,18.00
2023-01-30T03:33:27.144Z,17.85
2023-01-30T03:38:28.552Z,19.48
2023-01-30T03:43:30.275Z,19.85
2023-01-30T03:48:31.609Z,18.55
2023-01-30T03:53:32.938Z,21.10
2023-01-30T03:58:34.317Z,16.33
2023-01-30T04:03:35.671Z,19.75
2023-01-30T04:08:37.056Z,16.83
2023-01-30T04:13:38.500Z,19.00
2023-01-30T04:18:39.882Z,17.95
2023-01-30T04:23:41.924Z,19.02
2023-01-30T04:28:44.592Z,18.77
2023-01-30T04:33:46.145Z,18.75
2023-01-30T04:38:47.704Z,20.80
2023-01-30T04:43:49.174Z,21.80
2023-01-30T04:48:50.561Z,21.33
2023-01-30T04:53:51.950Z,17.48
2023-01-30T04:58:53.503Z,21.10
2023-01-30T05:03:55.226Z,21.00
2023-01-30T05:08:57.457Z,20.17
2023-01-30T05:13:59.166Z,22.00
2023-01-30T05:19:00.609Z,21.58
2023-01-30T05:24:02.102Z,20.02
2023-01-30T05:29:03.559Z,20.73
2023-01-30T05:34:04.947Z,22.23
2023-01-30T05:39:06.392Z,22.83
2023-01-30T05:44:07.806Z,23.42
2023-01-30T05:49:09.113Z,22.00
2023-01-30T05:54:10.428Z,20.55
2023-01-30T05:59:12.563Z,21.95
2023-01-30T06:04:14.101Z,22.10
2023-01-30T06:09:15.489Z,20.63
2023-01-30T06:14:16.879Z,22.70
2023-01-30T06:19:18.245Z,22.25
2023-01-30T06:24:19.599Z,20.40
2023-01-30T06:29:21.016Z,19.08
2023-01-30T06:34:22.420Z,17.88
2023-01-30T06:39:23.850Z,18.83
2023-01-30T06:44:25.186Z,18.30
2023-01-30T06:49:26.554Z,19.15
2023-01-30T06:54:27.932Z,17.75
2023-01-30T06:59:30.324Z,17.02
2023-01-30T07:04:31.805Z,16.30
2023-01-30T07:09:33.238Z,18.05
2023-01-30T07:14:35.075Z,19.20
2023-01-30T07:19:36.393Z,15.98
2023-01-30T07:24:38.507Z,16.35
2023-01-30T07:29:40.075Z,17.33
2023-01-30T07:34:42.253Z,15.68
2023-01-30T07:39:43.942Z,15.68
2023-01-30T07:44:45.272Z,16.23
2023-01-30T07:49:46.601Z,15.82
2023-01-30T07:54:47.953Z,16.02
2023-01-30T07:59:49.421Z,17.73
2023-01-30T08:04:50.841Z,15.18
2023-01-30T08:09:52.466Z,16.98
2023-01-30T08:14:53.886Z,16.33
2023-01-30T08:19:55.367Z,13.68
2023-01-30T08:24:56.653Z,15.40
2023-01-30T08:29:57.967Z,18.85
2023-01-30T08:34:59.437Z,14.45
2023-01-30T08:40:00.783Z,14.73
2023-01-30T08:45:02.564Z,14.70
2023-01-30T08:50:04.739Z,13.68
2023-01-30T08:55:06.412Z,12.25
2023-01-30T09:00:09.184Z,15.60
2023-01-30T09:05:11.210Z,13.02
2023-01-30T09:10:12.571Z,12.10
2023-01-30T09:15:14.039Z,11.35
2023-01-30T09:20:15.493Z,10.70
2023-01-30T09:25:17.483Z,10.23
2023-01-30T09:30:19.599Z,11.13
2023-01-30T09:35:21.102Z,7.13
2023-01-30T09:40:27.161Z,7.85
2023-01-30T09:45:59.876Z,8.38
2023-01-30T09:51:17.878Z,6.50
2023-01-30T09:56:19.967Z,5.25
2023-01-30T10:01:44.298Z,6.45
2023-01-30T10:07:04.878Z,7.28
2023-01-30T10:12:32.283Z,5.75
2023-01-30T10:17:43.082Z,4.50
2023-01-30T10:23:02.116Z,7.18
2023-01-30T10:28:16.395Z,3.42
2023-01-30T10:33:26.355Z,2.73
2023-01-30T10:38:43.967Z,2.78
2023-01-30T10:43:58.782Z,3.60
2023-01-30T10:49:19.693Z,3.15
2023-01-30T10:55:02.991Z,2.45
2023-01-30T11:01:03.463Z,4.03
2023-01-30T11:06:13.364Z,2.38
2023-01-30T11:11:31.127Z,3.15
2023-01-30T11:16:43.365Z,2.92
2023-01-30T11:21:53.587Z,2.67
2023-01-30T11:26:56.621Z,2.90
2023-01-30T11:32:11.385Z,3.53
2023-01-30T11:37:26.663Z,4.38
2023-01-30T11:42:32.184Z,2.53
2023-01-30T11:47:33.624Z,3.58
2023-01-30T11:52:38.126Z,1.85
2023-01-30T11:57:51.179Z,5.25
2023-01-30T12:02:54.325Z,1.92
2023-01-30T12:08:31.212Z,1.88
2023-01-30T12:13:45.418Z,1.52
2023-01-30T12:18:59.322Z,2.88
2023-01-30T12:24:11.649Z,3.38
2023-01-30T12:29:29.821Z,2.10
2023-01-30T12:34:31.419Z,1.70
2023-01-30T12:39:47.812Z,2.55
2023-01-30T12:45:19.691Z,2.63
2023-01-30T12:50:38.259Z,3.75
2023-01-30T12:55:58.361Z,1.70
2023-01-30T13:01:29.485Z,3.03
2023-01-30T13:07:26.251Z,2.13
2023-01-30T13:12:42.907Z,3.80
2023-01-30T13:17:56.003Z,3.00
2023-01-30T13:23:27.113Z,2.28
2023-01-30T13:28:35.283Z,7.30
2023-01-30T13:33:40.560Z,3.88
2023-01-30T13:39:13.496Z,4.15
2023-01-30T13:44:23.049Z,6.32
2023-01-30T13:49:36.614Z,3.50
2023-01-30T13:54:50.628Z,2.58
2023-01-30T14:00:16.915Z,4.78
2023-01-30T14:06:00.972Z,3.13
2023-01-30T14:11:03.129Z,2.35
2023-01-30T14:16:06.830Z,4.65
2023-01-30T14:21:25.316Z,5.82
2023-01-30T14:26:55.974Z,5.63
2023-01-30T14:31:57.612Z,5.55
2023-01-30T14:36:59.114Z,2.75
2023-01-30T14:42:33.418Z,2.72
2023-01-30T14:47:44.812Z,4.70
2023-01-30T14:52:54.517Z,9.33
2023-01-30T14:58:02.622Z,4.15
2023-01-30T15:03:24.785Z,5.45
2023-01-30T15:08:26.980Z,4.30
2023-01-30T15:13:41.444Z,4.03
2023-01-30T15:19:28.643Z,6.47
2023-01-30T15:25:07.631Z,6.28
2023-01-30T15:30:29.605Z,5.47
2023-01-30T15:35:31.083Z,4.93
2023-01-30T15:40:32.830Z,5.65
2023-01-30T15:45:34.249Z,5.88
2023-01-30T15:50:37.250Z,6.13
2023-01-30T15:55:38.696Z,5.28
2023-01-30T16:00:49.172Z,6.10
2023-01-30T16:05:55.184Z,9.02
2023-01-30T16:10:56.787Z,6.40
2023-01-30T16:16:01.130Z,8.18
2023-01-30T16:21:06.464Z,8.60
2023-01-30T16:26:14.306Z,5.30
2023-01-30T16:31:18.259Z,5.03
2023-01-30T16:36:19.614Z,11.30
2023-01-30T16:41:44.875Z,8.18
2023-01-30T16:51:49.225Z,12.48
2023-01-30T16:56:55.466Z,9.00
2023-01-30T17:01:59.077Z,7.40
2023-01-30T17:07:04.359Z,11.40
2023-01-30T17:12:42.695Z,8.23
2023-01-30T17:17:44.455Z,9.85
2023-01-30T17:22:48.325Z,5.35
2023-01-30T17:27:49.900Z,7.63
2023-01-30T17:32:51.293Z,9.25
2023-01-30T17:38:03.504Z,10.20
2023-01-30T17:43:06.034Z,7.32
2023-01-30T17:48:08.006Z,8.85
2023-01-30T17:53:09.462Z,10.48
2023-01-30T17:58:19.474Z,9.35
2023-01-30T18:03:21.038Z,9.32
2023-01-30T18:08:22.434Z,7.40
2023-01-30T18:13:23.788Z,9.85
2023-01-30T18:18:25.606Z,11.70
2023-01-30T18:23:27.281Z,8.38
2023-01-30T18:28:28.767Z,10.88
2023-01-30T18:33:30.183Z,8.40
2023-01-30T18:38:32.213Z,7.13
2023-01-30T18:43:33.698Z,10.35
2023-01-30T18:48:35.822Z,7.78
2023-01-30T18:53:37.842Z,11.02
2023-01-30T18:58:39.565Z,11.30
2023-01-30T19:03:41.529Z,13.68
2023-01-30T19:08:43.048Z,10.40
2023-01-30T19:13:44.403Z,11.10
2023-01-30T19:18:46.060Z,10.38
2023-01-30T19:23:49.054Z,7.45
2023-01-30T19:28:51.438Z,10.90
2023-01-30T19:33:56.364Z,10.38
2023-01-30T19:44:03.696Z,5.65
2023-01-30T19:49:05.788Z,9.40
2023-01-30T19:54:10.564Z,9.90
2023-01-30T19:59:12.992Z,12.10
2023-01-30T20:04:14.365Z,9.20
2023-01-30T20:09:16.168Z,14.07
2023-01-30T20:14:17.591Z,13.18
2023-01-30T20:19:19.054Z,6.88
2023-01-30T20:24:20.417Z,8.50
2023-01-30T20:29:21.931Z,10.85
2023-01-30T20:34:24.056Z,9.45
2023-01-30T20:39:25.749Z,9.88
2023-01-30T20:44:27.167Z,12.10
2023-01-30T20:49:28.502Z,6.97
2023-01-30T20:54:29.853Z,9.20
2023-01-30T20:59:31.397Z,8.32
2023-01-30T21:04:33.216Z,12.57
2023-01-30T21:09:34.785Z,13.52
2023-01-30T21:14:36.184Z,10.73
2023-01-30T21:19:38.371Z,9.20
2023-01-30T21:24:44.276Z,11.05
2023-01-30T21:29:45.708Z,11.93
2023-01-30T21:34:47.267Z,12.82
2023-01-30T21:40:07.436Z,10.98
2023-01-30T21:45:09.125Z,12.85
2023-01-30T21:50:10.917Z,11.50
2023-01-30T21:55:12.307Z,10.73
2023-01-30T22:00:14.371Z,10.15
2023-01-30T22:05:15.770Z,7.78
2023-01-30T22:10:17.328Z,9.43
2023-01-30T22:15:21.640Z,10.77
2023-01-30T22:20:23.253Z,7.72
2023-01-30T22:25:24.656Z,11.02
2023-01-30T22:30:26.205Z,10.93
2023-01-30T22:35:27.495Z,13.75
2023-01-30T22:40:28.865Z,10.27
2023-01-30T22:45:30.310Z,7.93
2023-01-30T22:50:31.685Z,13.05
2023-01-30T22:55:35.809Z,10.73
2023-01-30T23:00:37.106Z,7.77
2023-01-30T23:05:39.191Z,11.15
2023-01-30T23:10:40.558Z,9.43
2023-01-30T23:15:43.433Z,5.40
2023-01-30T23:20:45.385Z,7.88
2023-01-30T23:25:47.009Z,7.50
2023-01-30T23:30:48.472Z,11.65
2023-01-30T23:35:49.780Z,8.05
2023-01-30T23:40:51.217Z,9.02
2023-01-30T23:45:55.917Z,7.20
2023-01-30T23:50:57.352Z,8.40
2023-01-30T23:55:58.904Z,9.15
